Time;durP1;ratioP1;P1;durP2;ratioP2;P2;SDS_P1;SDS_P2;PMS_P1;PMS_P2;Temp;Humidity;BMP_temperature;BMP_pressure;BME280_temperature;BME280_humidity;BME280_pressure;Samples;Min_cycle;Max_cycle;Signal;HPM_P1;HPM_P2
2022/10/27 00:01:20;;;;;;;32.83;4.60;;;;;;;12.19;100.00;99456.16;4991139;28;20541;-91
2022/10/27 00:03:51;;;;;;;33.35;4.35;;;;;;;12.15;100.00;99450.38;4968730;28;20126;-90
2022/10/27 00:06:20;;;;;;;43.13;4.88;;;;;;;12.15;100.00;99453.03;4962538;28;20044;-91
2022/10/27 00:08:51;;;;;;;35.45;4.30;;;;;;;12.17;100.00;99457.34;4966677;28;20039;-91
2022/10/27 00:11:21;;;;;;;36.55;4.22;;;;;;;12.15;100.00;99454.88;4991821;28;20124;-91
2022/10/27 00:13:51;;;;;;;42.72;5.15;;;;;;;12.14;100.00;99464.63;4958071;28;20068;-90
2022/10/27 00:16:20;;;;;;;35.08;4.20;;;;;;;12.12;100.00;99466.63;5009304;28;20040;-91
2022/10/27 00:18:48;;;;;;;32.67;4.10;;;;;;;12.12;100.00;99471.13;4995229;28;20092;-92
2022/10/27 00:21:19;;;;;;;28.13;3.83;;;;;;;12.13;100.00;99462.16;4984008;28;20064;-91
2022/10/27 00:23:51;;;;;;;34.47;4.53;;;;;;;12.11;100.00;99466.81;4964426;28;20118;-91
2022/10/27 00:26:21;;;;;;;42.15;4.70;;;;;;;12.08;100.00;99469.81;4982750;28;20132;-89
2022/10/27 00:28:51;;;;;;;33.47;4.07;;;;;;;12.08;100.00;99464.50;4975181;28;20038;-90
2022/10/27 00:31:21;;;;;;;30.67;4.85;;;;;;;12.07;100.00;99460.19;4977988;28;20046;-91
2022/10/27 00:33:50;;;;;;;31.15;4.00;;;;;;;12.10;100.00;99466.00;4971232;28;20030;-90
2022/10/27 00:36:23;;;;;;;40.15;5.88;;;;;;;12.11;100.00;99465.00;4974449;28;20058;-89
2022/10/27 00:38:55;;;;;;;34.58;3.75;;;;;;;12.13;100.00;99478.88;4980741;28;20132;-90
2022/10/27 00:41:32;;;;;;;40.25;5.03;;;;;;;12.14;100.00;99466.44;4981670;28;20052;-90
2022/10/27 00:44:22;;;;;;;36.20;4.50;;;;;;;12.18;100.00;99474.88;4959981;28;20502;-89
2022/10/27 00:46:50;;;;;;;31.92;5.65;;;;;;;12.20;100.00;99470.22;4989794;28;20034;-89
2022/10/27 00:49:23;;;;;;;29.38;4.65;;;;;;;12.25;100.00;99471.31;4996257;28;20032;-89
2022/10/27 00:51:59;;;;;;;31.88;4.72;;;;;;;12.31;100.00;99469.78;4968623;28;20331;-91
2022/10/27 00:54:32;;;;;;;41.33;5.38;;;;;;;12.33;100.00;99459.81;4991937;28;20100;-91
2022/10/27 00:57:00;;;;;;;35.40;4.93;;;;;;;12.35;100.00;99457.00;4973703;28;20030;-91
2022/10/27 00:59:29;;;;;;;43.67;4.60;;;;;;;12.39;100.00;99445.84;4975742;28;20486;-91
2022/10/27 01:01:57;;;;;;;38.38;5.15;;;;;;;12.39;100.00;99435.25;4962670;28;20030;-92
2022/10/27 01:04:48;;;;;;;27.70;3.67;;;;;;;12.41;100.00;99435.06;4970488;28;20045;-91
2022/10/27 01:07:18;;;;;;;40.65;4.95;;;;;;;12.39;100.00;99432.59;4950986;28;20057;-92
2022/10/27 01:09:46;;;;;;;34.30;4.68;;;;;;;12.37;100.00;99429.31;5013438;28;20022;-92
2022/10/27 01:12:15;;;;;;;32.30;5.13;;;;;;;12.38;100.00;99422.19;4980374;28;20030;-91
2022/10/27 01:14:44;;;;;;;31.33;4.70;;;;;;;12.37;100.00;99418.72;4975293;28;20030;-92
2022/10/27 01:17:56;;;;;;;35.75;4.97;;;;;;;12.40;100.00;99417.53;4966865;28;20505;-92
2022/10/27 01:20:46;;;;;;;29.48;5.30;;;;;;;12.43;100.00;99413.69;4974354;28;20091;-92
2022/10/27 01:23:33;;;;;;;32.22;5.28;;;;;;;12.47;100.00;99413.13;4979361;28;20530;-90
2022/10/27 01:26:19;;;;;;;25.45;3.72;;;;;;;12.50;100.00;99415.41;4988174;28;20049;-92
2022/10/27 01:29:00;;;;;;;25.95;4.60;;;;;;;12.53;100.00;99419.56;4977540;28;20073;-92
2022/10/27 01:31:32;;;;;;;38.30;5.60;;;;;;;12.57;100.00;99414.69;4975542;28;20044;-91
2022/10/27 01:34:11;;;;;;;36.95;4.80;;;;;;;12.58;100.00;99419.81;4997304;28;20066;-90
2022/10/27 01:37:00;;;;;;;32.83;4.90;;;;;;;12.61;100.00;99418.63;4986660;28;20172;-92
2022/10/27 01:39:36;;;;;;;29.50;3.80;;;;;;;12.65;100.00;99417.25;4993356;28;20030;-92
2022/10/27 01:42:17;;;;;;;54.17;5.47;;;;;;;12.63;100.00;99414.78;5015389;28;20041;-92
2022/10/27 01:44:51;;;;;;;29.30;4.72;;;;;;;12.64;100.00;99405.84;4988921;28;20041;-93
2022/10/27 01:47:21;;;;;;;42.63;5.97;;;;;;;12.71;100.00;99419.16;5002855;28;20049;-92
2022/10/27 01:49:52;;;;;;;38.38;5.35;;;;;;;12.74;100.00;99418.00;4985088;28;20034;-92
2022/10/27 01:52:38;;;;;;;34.92;4.55;;;;;;;12.77;100.00;99409.66;4982912;28;20061;-92
2022/10/27 01:55:36;;;;;;;35.85;4.88;;;;;;;12.78;100.00;99411.31;4998987;28;20044;-92
2022/10/27 01:58:22;;;;;;;;;;;;;;;12.71;100.00;99411.22;5004130;28;20482;-92
2022/10/27 02:01:00;;;;;;;42.08;5.55;;;;;;;12.75;100.00;99401.91;4993295;28;19962;-92
2022/10/27 02:03:37;;;;;;;43.25;4.72;;;;;;;12.79;100.00;99404.97;5010214;28;20045;-93
2022/10/27 02:06:30;;;;;;;40.10;5.15;;;;;;;12.81;100.00;99402.16;4984953;28;20045;-92
2022/10/27 02:09:12;;;;;;;28.25;4.65;;;;;;;12.84;100.00;99401.78;5014485;28;20437;-93
2022/10/27 02:11:45;;;;;;;43.03;4.22;;;;;;;12.86;100.00;99395.31;4992109;28;20480;-93
2022/10/27 02:14:15;;;;;;;27.95;4.20;;;;;;;12.88;100.00;99379.19;4990559;28;20482;-92
2022/10/27 02:16:50;;;;;;;33.67;5.40;;;;;;;12.91;100.00;99378.81;4992964;28;20070;-93
2022/10/27 02:19:25;;;;;;;33.20;4.55;;;;;;;12.92;100.00;99375.16;4981589;28;20042;-93
2022/10/27 02:21:59;;;;;;;43.85;5.22;;;;;;;12.95;100.00;99361.53;5002706;28;20041;-94
2022/10/27 02:24:29;;;;;;;38.28;4.88;;;;;;;12.98;100.00;99369.09;5000911;28;20033;-92
2022/10/27 02:27:05;;;;;;;40.30;6.25;;;;;;;13.00;100.00;99351.19;5000233;28;20067;-93
2022/10/27 02:29:43;;;;;;;42.58;5.65;;;;;;;13.02;100.00;99322.66;4999792;28;20474;-94
2022/10/27 02:32:15;;;;;;;30.23;4.10;;;;;;;13.06;100.00;99333.69;4979731;28;20034;-92
2022/10/27 02:34:47;;;;;;;30.08;4.25;;;;;;;13.07;100.00;99348.59;5010634;28;20474;-92
2022/10/27 02:37:37;;;;;;;28.92;4.40;;;;;;;13.08;100.00;99350.25;4978622;28;20561;-92
2022/10/27 02:40:07;;;;;;;29.42;4.03;;;;;;;13.09;100.00;99333.31;4984161;28;20062;-93
2022/10/27 02:42:35;;;;;;;20.33;3.33;;;;;;;13.09;100.00;99335.16;4970999;28;20034;-92
2022/10/27 02:45:03;;;;;;;26.70;3.75;;;;;;;13.08;100.00;99334.31;4989814;28;20096;-90
2022/10/27 02:47:31;;;;;;;28.52;4.00;;;;;;;13.08;100.00;99329.03;4993133;28;20121;-92
2022/10/27 02:50:01;;;;;;;26.67;4.05;;;;;;;13.11;100.00;99336.59;4974383;28;20430;-92
2022/10/27 02:52:30;;;;;;;28.08;4.72;;;;;;;13.09;100.00;99335.97;4960223;28;20038;-93
2022/10/27 02:55:00;;;;;;;24.13;4.05;;;;;;;13.11;100.00;99333.13;4973502;28;20038;-93
2022/10/27 02:57:29;;;;;;;23.55;3.10;;;;;;;13.12;100.00;99327.63;4961261;28;20514;-92
2022/10/27 02:59:57;;;;;;;26.13;3.30;;;;;;;13.11;100.00;99318.03;4994324;28;20030;-91
2022/10/27 03:02:26;;;;;;;25.38;3.03;;;;;;;13.13;100.00;99309.88;4964840;28;20058;-92
2022/10/27 03:04:53;;;;;;;26.52;4.28;;;;;;;13.11;100.00;99304.75;4990109;28;20034;-92
2022/10/27 03:07:21;;;;;;;16.40;2.80;;;;;;;13.13;100.00;99318.66;4964115;28;20044;-92
2022/10/27 03:09:49;;;;;;;22.17;3.22;;;;;;;13.10;100.00;99310.25;4963719;28;20037;-93
2022/10/27 03:12:19;;;;;;;23.67;3.75;;;;;;;13.12;100.00;99309.06;4992178;28;20036;-92
2022/10/27 03:14:47;;;;;;;22.40;2.83;;;;;;;13.11;100.00;99312.72;4979850;28;20036;-91
2022/10/27 03:17:15;;;;;;;15.35;2.20;;;;;;;13.07;100.00;99300.03;4994538;28;20048;-93
2022/10/27 03:19:43;;;;;;;17.13;3.05;;;;;;;13.09;100.00;99309.44;4987696;28;20471;-94
2022/10/27 03:22:11;;;;;;;12.82;1.83;;;;;;;13.06;100.00;99301.84;4970095;28;20031;-92
2022/10/27 03:24:38;;;;;;;17.10;1.75;;;;;;;13.08;100.00;99296.34;4980258;28;20052;-90
2022/10/27 03:27:06;;;;;;;16.10;1.90;;;;;;;13.07;100.00;99286.75;4993459;28;20052;-90
2022/10/27 03:29:35;;;;;;;14.77;2.22;;;;;;;13.09;100.00;99295.38;4955873;28;20440;-91
2022/10/27 03:32:03;;;;;;;11.93;2.33;;;;;;;13.07;100.00;99290.25;4989827;28;20029;-90
2022/10/27 03:34:31;;;;;;;14.15;1.90;;;;;;;13.09;100.00;99292.72;4962567;28;20045;-91
2022/10/27 03:36:59;;;;;;;18.80;2.63;;;;;;;13.07;100.00;99289.41;4994986;28;20062;-91
2022/10/27 03:39:26;;;;;;;10.48;1.80;;;;;;;13.08;100.00;99297.19;4979677;28;20056;-91
2022/10/27 03:41:54;;;;;;;8.75;1.25;;;;;;;13.08;100.00;99307.78;4980984;28;20041;-93
2022/10/27 03:44:22;;;;;;;11.95;1.40;;;;;;;13.09;100.00;99290.06;4971542;28;20509;-91
2022/10/27 03:46:50;;;;;;;12.93;1.65;;;;;;;13.08;100.00;99293.69;4963083;28;20076;-92
2022/10/27 03:49:17;;;;;;;11.82;1.30;;;;;;;13.10;100.00;99287.22;4977491;28;20430;-90
2022/10/27 03:51:45;;;;;;;9.45;1.60;;;;;;;13.09;100.00;99282.91;4973604;28;20104;-92
2022/10/27 03:54:14;;;;;;;10.00;1.50;;;;;;;13.11;100.00;99278.22;4994175;28;20691;-91
2022/10/27 03:56:42;;;;;;;10.77;1.48;;;;;;;13.11;100.00;99277.41;4994324;28;20033;-91
2022/10/27 03:59:11;;;;;;;12.13;1.58;;;;;;;13.14;100.00;99271.72;5000716;28;20053;-90
2022/10/27 04:01:39;;;;;;;9.75;1.60;;;;;;;13.12;100.00;99273.75;4968075;28;20061;-91
2022/10/27 04:04:10;;;;;;;16.73;2.42;;;;;;;13.14;100.00;99271.72;4968410;28;20058;-90
2022/10/27 04:06:38;;;;;;;9.63;1.27;;;;;;;13.14;100.00;99269.06;4994402;28;20033;-91
2022/10/27 04:09:07;;;;;;;10.70;1.85;;;;;;;13.14;100.00;99253.97;4989281;28;20041;-90
2022/10/27 04:11:35;;;;;;;8.70;1.02;;;;;;;13.12;100.00;99256.00;4968365;28;20045;-91
2022/10/27 04:14:04;;;;;;;6.70;1.23;;;;;;;13.18;100.00;99253.59;4979628;28;20038;-93
2022/10/27 04:16:32;;;;;;;10.82;1.25;;;;;;;13.15;100.00;99250.31;4975629;28;20042;-92
2022/10/27 04:19:00;;;;;;;6.50;0.90;;;;;;;13.19;100.00;99241.97;4984996;28;20122;-92
2022/10/27 04:21:28;;;;;;;5.85;1.25;;;;;;;13.15;100.00;99239.69;4968201;28;20702;-92
2022/10/27 04:23:58;;;;;;;10.18;0.93;;;;;;;13.19;100.00;99245.44;4967035;28;20038;-92
2022/10/27 04:26:28;;;;;;;6.47;0.90;;;;;;;13.19;100.00;99258.72;4998345;28;20042;-93
2022/10/27 04:28:57;;;;;;;3.90;0.50;;;;;;;13.22;100.00;99260.19;4999096;28;20113;-92
2022/10/27 04:31:26;;;;;;;6.10;0.68;;;;;;;13.23;100.00;99245.88;4972010;28;20482;-92
2022/10/27 04:33:54;;;;;;;4.93;0.60;;;;;;;13.24;100.00;99244.88;4999350;28;20030;-93
2022/10/27 04:36:23;;;;;;;2.30;0.80;;;;;;;13.25;100.00;99241.22;4998334;28;20034;-93
2022/10/27 04:38:51;;;;;;;7.32;0.98;;;;;;;13.25;100.00;99239.38;4995824;28;20102;-93
2022/10/27 04:41:21;;;;;;;6.18;0.95;;;;;;;13.25;100.00;99230.59;4958087;28;20446;-93
2022/10/27 04:43:51;;;;;;;4.72;0.98;;;;;;;13.24;100.00;99221.81;4987091;28;20817;-93
2022/10/27 04:46:21;;;;;;;5.80;0.90;;;;;;;13.24;100.00;99220.97;4970169;28;20104;-93
2022/10/27 04:48:50;;;;;;;2.72;0.70;;;;;;;13.22;100.00;99205.25;4994857;28;20564;-93
2022/10/27 04:51:18;;;;;;;5.50;1.35;;;;;;;13.19;100.00;99200.34;4984062;28;20459;-94
2022/10/27 04:53:47;;;;;;;4.63;0.80;;;;;;;13.21;100.00;99208.09;4965806;28;20030;-93
2022/10/27 04:56:15;;;;;;;4.30;0.60;;;;;;;13.17;100.00;99210.31;4964126;28;20046;-93
2022/10/27 04:58:43;;;;;;;5.05;1.05;;;;;;;13.16;100.00;99206.03;4979767;28;20030;-93
2022/10/27 05:01:13;;;;;;;6.05;1.00;;;;;;;13.17;100.00;99199.69;4981684;28;20034;-93
2022/10/27 05:03:41;;;;;;;5.88;0.80;;;;;;;13.15;100.00;99212.34;4965594;28;20034;-93
2022/10/27 05:06:09;;;;;;;2.40;0.50;;;;;;;13.15;100.00;99199.88;4994296;28;20034;-94
2022/10/27 05:08:38;;;;;;;4.10;0.77;;;;;;;13.19;100.00;99196.84;4991302;28;20038;-93
2022/10/27 05:11:07;;;;;;;7.13;0.60;;;;;;;13.20;100.00;99202.00;4992200;28;20689;-93
2022/10/27 05:13:35;;;;;;;2.88;0.60;;;;;;;13.21;100.00;99198.31;4981257;28;20033;-95
2022/10/27 05:16:04;;;;;;;4.45;0.45;;;;;;;13.26;100.00;99195.91;4978697;28;20029;-93
2022/10/27 05:18:32;;;;;;;4.00;0.60;;;;;;;13.28;100.00;99191.22;4981094;28;20128;-94
2022/10/27 05:21:02;;;;;;;3.38;0.45;;;;;;;13.35;100.00;99185.13;4998335;28;20034;-92
2022/10/27 05:23:32;;;;;;;6.22;0.60;;;;;;;13.39;100.00;99189.06;4983309;28;20030;-92
2022/10/27 05:26:02;;;;;;;7.65;0.80;;;;;;;13.45;100.00;99195.41;4971385;28;20506;-94
2022/10/27 05:28:31;;;;;;;2.33;0.40;;;;;;;13.46;100.00;99195.22;4978853;28;20086;-94
2022/10/27 05:31:01;;;;;;;4.35;0.55;;;;;;;13.51;100.00;99192.84;4993221;28;20052;-93
2022/10/27 05:33:29;;;;;;;3.95;0.60;;;;;;;13.53;100.00;99187.34;4965550;28;20497;-93
2022/10/27 05:35:58;;;;;;;10.15;0.90;;;;;;;13.58;100.00;99181.44;4996509;28;20030;-94
2022/10/27 05:38:26;;;;;;;6.03;0.50;;;;;;;13.59;100.00;99191.03;4978177;28;20065;-93
2022/10/27 05:40:58;;;;;;;6.65;0.60;;;;;;;13.61;100.00;99189.84;5010732;28;20466;-93
2022/10/27 05:43:25;;;;;;;6.43;0.70;;;;;;;13.62;100.00;99178.19;4980324;28;20040;-93
2022/10/27 05:45:55;;;;;;;8.38;1.00;;;;;;;13.66;100.00;99175.97;4953927;28;20037;-94
2022/10/27 05:48:25;;;;;;;8.10;0.75;;;;;;;13.69;100.00;99164.13;4992690;28;20121;-94
2022/10/27 05:50:54;;;;;;;10.85;0.95;;;;;;;13.69;100.00;99175.59;4969038;28;20034;-95
2022/10/27 05:53:22;;;;;;;10.27;1.23;;;;;;;13.71;100.00;99168.22;4977850;28;20033;-94
2022/10/27 05:56:09;;;;;;;9.88;1.30;;;;;;;13.74;100.00;99185.63;4973459;28;20041;-95
2022/10/27 05:58:36;;;;;;;12.18;0.98;;;;;;;13.74;100.00;99180.31;4978086;28;20026;-94
2022/10/27 06:01:06;;;;;;;15.32;1.45;;;;;;;13.78;100.00;99170.91;4987383;28;20105;-95
2022/10/27 06:03:35;;;;;;;8.52;1.23;;;;;;;13.81;100.00;99169.72;4980991;28;20053;-94
2022/10/27 06:06:04;;;;;;;12.32;1.65;;;;;;;13.81;100.00;99162.56;4996952;28;20033;-94
2022/10/27 06:08:34;;;;;;;6.82;1.23;;;;;;;13.84;100.00;99179.94;4975927;28;20061;-94
2022/10/27 06:11:03;;;;;;;10.70;1.08;;;;;;;13.83;100.00;99168.50;4973818;28;20091;-95
2022/10/27 06:13:31;;;;;;;6.95;0.93;;;;;;;13.83;100.00;99163.19;4979195;28;20478;-94
2022/10/27 06:16:00;;;;;;;6.32;1.00;;;;;;;13.85;100.00;99161.16;4992348;28;20070;-96
2022/10/27 06:18:27;;;;;;;9.25;0.82;;;;;;;13.86;100.00;99161.97;4951748;28;20112;-95
2022/10/27 06:20:55;;;;;;;6.07;0.80;;;;;;;13.86;100.00;99154.00;4951464;28;20125;-95
2022/10/27 06:23:23;;;;;;;7.30;0.60;;;;;;;13.88;100.00;99151.97;4984628;28;20084;-95
2022/10/27 06:25:55;;;;;;;10.07;1.05;;;;;;;13.90;100.00;99152.59;4978191;28;20041;-94
2022/10/27 06:28:24;;;;;;;7.88;0.60;;;;;;;13.91;100.00;99156.06;4992397;28;20060;-95
2022/10/27 06:30:52;;;;;;;7.38;0.95;;;;;;;13.92;100.00;99149.75;4963480;28;20050;-94
2022/10/27 06:33:19;;;;;;;5.43;0.60;;;;;;;13.93;100.00;99156.69;4978250;28;20033;-94
2022/10/27 06:35:47;;;;;;;3.97;0.60;;;;;;;13.92;100.00;99147.09;4977120;28;20125;-93
2022/10/27 06:38:15;;;;;;;7.03;1.48;;;;;;;13.95;100.00;99152.78;4991935;28;20050;-93
2022/10/27 06:40:45;;;;;;;4.07;0.60;;;;;;;13.92;100.00;99133.81;4994007;28;20094;-94
2022/10/27 06:43:13;;;;;;;5.95;0.57;;;;;;;13.95;100.00;99128.88;4974699;28;20026;-94
2022/10/27 06:45:47;;;;;;;3.80;0.50;;;;;;;13.97;100.00;99141.97;4979809;28;20030;-93
2022/10/27 06:48:15;;;;;;;3.75;1.00;;;;;;;13.94;100.00;99137.06;5012966;28;20037;-93
2022/10/27 06:50:43;;;;;;;3.70;0.60;;;;;;;13.95;100.00;99131.53;5011286;28;20033;-93
2022/10/27 06:53:11;;;;;;;4.28;0.35;;;;;;;13.97;100.00;99134.00;4975734;28;20029;-93
2022/10/27 06:55:39;;;;;;;1.75;0.38;;;;;;;13.96;100.00;99143.84;4977417;28;20033;-93
2022/10/27 06:58:08;;;;;;;3.55;0.60;;;;;;;13.98;100.00;99144.44;4994084;28;20440;-91
2022/10/27 07:00:36;;;;;;;8.00;0.75;;;;;;;13.97;100.00;99140.16;5006873;28;20056;-94
2022/10/27 07:03:08;;;;;;;7.03;1.02;;;;;;;14.02;100.00;99152.84;5009207;28;21063;-93
2022/10/27 07:05:38;;;;;;;10.57;0.98;;;;;;;13.99;100.00;99153.22;4951242;28;20069;-91
2022/10/27 07:08:05;;;;;;;5.00;1.00;;;;;;;14.02;100.00;99152.84;4992811;28;20548;-93
2022/10/27 07:10:34;;;;;;;4.82;0.60;;;;;;;13.97;100.00;99148.13;5005645;28;20036;-93
2022/10/27 07:13:02;;;;;;;8.63;1.13;;;;;;;13.99;100.00;99159.38;4990977;28;20504;-92
2022/10/27 07:15:32;;;;;;;8.60;0.98;;;;;;;14.00;100.00;99155.69;4971678;28;20132;-93
2022/10/27 07:18:04;;;;;;;7.55;1.10;;;;;;;14.00;100.00;99152.19;4995005;28;20065;-93
2022/10/27 07:20:35;;;;;;;6.63;1.13;;;;;;;13.99;100.00;99153.22;4986601;28;20687;-93
2022/10/27 07:23:03;;;;;;;15.90;1.98;;;;;;;13.99;100.00;99166.50;4975595;28;20030;-93
2022/10/27 07:25:33;;;;;;;10.70;1.00;;;;;;;13.99;100.00;99169.16;5009677;28;20045;-92
2022/10/27 07:28:02;;;;;;;12.32;2.33;;;;;;;14.01;100.00;99146.69;4997407;28;20026;-94
2022/10/27 07:30:33;;;;;;;10.63;1.50;;;;;;;14.03;100.00;99159.78;4993975;28;20092;-92
2022/10/27 07:33:01;;;;;;;9.32;1.63;;;;;;;14.05;100.00;99156.94;5010317;28;20442;-92
2022/10/27 07:35:32;;;;;;;12.80;1.23;;;;;;;14.06;100.00;99154.09;4994023;28;20048;-94
2022/10/27 07:38:01;;;;;;;12.05;2.40;;;;;;;14.08;100.00;99161.84;4977604;28;20053;-93
2022/10/27 07:40:30;;;;;;;14.63;1.85;;;;;;;14.06;100.00;99155.91;5010732;28;20060;-92
2022/10/27 07:42:58;;;;;;;12.15;1.67;;;;;;;14.09;100.00;99166.97;5013863;28;20025;-92
2022/10/27 07:45:27;;;;;;;14.10;1.90;;;;;;;14.13;100.00;99164.72;5003795;28;20470;-93
2022/10/27 07:47:57;;;;;;;11.48;1.75;;;;;;;14.13;100.00;99172.69;4991338;28;20037;-92
2022/10/27 07:50:28;;;;;;;11.43;1.60;;;;;;;14.17;100.00;99167.81;4970202;28;20054;-93
2022/10/27 07:52:56;;;;;;;12.27;1.50;;;;;;;14.17;100.00;99173.94;5004358;28;20553;-92
2022/10/27 07:55:26;;;;;;;10.70;1.35;;;;;;;14.20;100.00;99170.06;4989141;28;20132;-93
2022/10/27 07:58:16;;;;;;;8.18;1.08;;;;;;;14.20;100.00;99170.88;5008700;28;20030;-92
2022/10/27 08:00:48;;;;;;;7.90;1.38;;;;;;;14.20;100.00;99184.19;5024995;28;20034;-93
2022/10/27 08:03:29;;;;;;;5.50;0.90;;;;;;;14.21;100.00;99180.50;5019030;28;20445;-93
2022/10/27 08:06:02;;;;;;;10.95;1.00;;;;;;;14.21;100.00;99191.13;5013435;28;20044;-93
2022/10/27 08:08:32;;;;;;;13.15;1.60;;;;;;;14.23;100.00;99196.22;4998696;28;20498;-93
2022/10/27 08:11:01;;;;;;;7.72;1.10;;;;;;;14.24;100.00;99192.56;5018707;28;20025;-92
2022/10/27 08:13:29;;;;;;;8.70;1.08;;;;;;;14.21;100.00;99192.94;5000549;28;20568;-93
2022/10/27 08:16:01;;;;;;;5.50;1.13;;;;;;;14.25;100.00;99207.50;4992269;28;20428;-92
2022/10/27 08:18:28;;;;;;;6.82;1.35;;;;;;;14.23;100.00;99204.22;5018676;28;20033;-92
2022/10/27 08:20:56;;;;;;;6.13;0.85;;;;;;;14.22;100.00;99214.00;5014462;28;20037;-93
2022/10/27 08:23:24;;;;;;;14.40;1.40;;;;;;;14.24;100.00;99213.81;5008810;28;20034;-93
2022/10/27 08:25:55;;;;;;;8.00;1.10;;;;;;;14.25;100.00;99204.84;5013289;28;20045;-94
2022/10/27 08:28:23;;;;;;;15.23;1.73;;;;;;;14.25;100.00;99221.59;5029224;28;20030;-93
2022/10/27 08:30:53;;;;;;;9.80;1.38;;;;;;;14.30;100.00;99217.53;4997545;28;20033;-93
2022/10/27 08:33:23;;;;;;;10.85;1.60;;;;;;;14.29;100.00;99211.38;4981975;28;20375;-93
2022/10/27 08:35:52;;;;;;;12.35;1.55;;;;;;;14.28;100.00;99207.09;4987195;28;20124;-94
2022/10/27 08:38:20;;;;;;;8.30;1.35;;;;;;;14.31;100.00;99209.34;4998289;28;20129;-93
2022/10/27 08:40:52;;;;;;;11.32;1.67;;;;;;;14.35;100.00;99218.56;5001620;28;20034;-93
2022/10/27 08:43:47;;;;;;;11.38;1.95;;;;;;;14.37;100.00;99221.84;4986403;28;20041;-92
2022/10/27 08:46:42;;;;;;;8.18;1.33;;;;;;;14.40;100.00;99217.97;4984823;28;20128;-93
2022/10/27 08:49:24;;;;;;;10.75;1.83;;;;;;;14.46;100.00;99219.81;4999126;28;20044;-94
2022/10/27 08:51:59;;;;;;;8.73;1.60;;;;;;;14.49;100.00;99221.28;4963022;28;20050;-92
2022/10/27 08:54:29;;;;;;;11.75;2.22;;;;;;;14.49;100.00;99211.44;4964136;28;20599;-92
2022/10/27 08:57:02;;;;;;;12.15;1.75;;;;;;;14.53;100.00;99211.84;4977567;28;20042;-93
2022/10/27 08:59:33;;;;;;;11.32;1.75;;;;;;;14.56;100.00;99207.97;4975212;28;20201;-93
2022/10/27 09:02:16;;;;;;;8.00;1.58;;;;;;;14.60;100.00;99217.19;4982627;28;20486;-93
2022/10/27 09:04:59;;;;;;;14.07;2.42;;;;;;;14.61;100.00;99216.16;4966894;28;20041;-93
2022/10/27 09:07:34;;;;;;;12.13;2.72;;;;;;;14.65;100.00;99217.44;4966523;28;20528;-93
2022/10/27 09:10:15;;;;;;;18.38;2.03;;;;;;;14.68;100.00;99211.69;4967069;28;20038;-93
2022/10/27 09:13:16;;;;;;;16.50;2.63;;;;;;;14.68;100.00;99219.69;4977610;28;20025;-93
2022/10/27 09:16:00;;;;;;;16.38;2.28;;;;;;;14.72;100.00;99228.06;4994529;28;20506;-93
2022/10/27 09:18:40;;;;;;;8.63;1.30;;;;;;;14.74;100.00;99241.97;4997694;28;20382;-93
2022/10/27 09:21:19;;;;;;;13.90;2.10;;;;;;;14.80;100.00;99235.06;4997631;28;20426;-94
2022/10/27 09:23:52;;;;;;;14.48;1.95;;;;;;;14.83;100.00;99242.63;4999535;28;20029;-93
2022/10/27 09:26:27;;;;;;;15.68;2.28;;;;;;;14.82;100.00;99248.97;4982062;28;20072;-93
2022/10/27 09:28:55;;;;;;;18.00;2.47;;;;;;;14.80;100.00;99251.84;4982489;28;20140;-93
2022/10/27 09:31:36;;;;;;;12.85;2.13;;;;;;;14.82;100.00;99244.47;4977203;28;20132;-93
2022/10/27 09:34:25;;;;;;;11.73;1.63;;;;;;;14.84;100.00;99253.06;4972816;28;20035;-93
2022/10/27 09:36:56;;;;;;;16.02;1.90;;;;;;;14.86;100.00;99244.88;4988448;28;20497;-93
2022/10/27 09:39:24;;;;;;;14.85;2.15;;;;;;;14.90;100.00;99251.44;4985606;28;20053;-93
2022/10/27 09:41:52;;;;;;;14.52;2.30;;;;;;;14.91;100.00;99254.94;4963550;28;20100;-92
2022/10/27 09:44:23;;;;;;;15.43;2.28;;;;;;;14.95;100.00;99251.66;4977594;28;20045;-92
2022/10/27 09:46:54;;;;;;;20.17;2.65;;;;;;;14.99;100.00;99255.56;4950342;28;20058;-92
2022/10/27 09:49:30;;;;;;;13.98;2.17;;;;;;;15.05;100.00;99250.44;4976929;28;20038;-92
2022/10/27 09:52:03;;;;;;;18.10;2.37;;;;;;;15.05;100.00;99253.13;4961769;28;20034;-92
2022/10/27 09:54:38;;;;;;;13.63;2.22;;;;;;;15.07;100.00;99262.53;4962001;28;20469;-92
2022/10/27 09:57:18;;;;;;;18.85;2.65;;;;;;;15.07;100.00;99265.19;4978072;28;20034;-92
2022/10/27 10:00:08;;;;;;;13.63;2.55;;;;;;;15.07;100.00;99267.84;4975043;28;20031;-91
2022/10/27 10:02:54;;;;;;;21.95;2.42;;;;;;;15.06;100.00;99273.38;4980844;28;20030;-92
2022/10/27 10:05:30;;;;;;;19.38;3.00;;;;;;;15.09;100.00;99263.16;5002038;28;20129;-93
2022/10/27 10:08:25;;;;;;;18.77;3.08;;;;;;;15.10;100.00;99267.44;4962622;28;20120;-92
2022/10/27 10:11:18;;;;;;;23.48;3.72;;;;;;;15.15;100.00;99280.13;4981034;28;20058;-92
2022/10/27 10:14:02;;;;;;;17.65;2.65;;;;;;;15.15;100.00;99266.00;5002060;28;20030;-92
2022/10/27 10:16:32;;;;;;;18.48;2.53;;;;;;;15.18;100.00;99269.06;5010986;28;20041;-92
2022/10/27 10:19:05;;;;;;;19.20;3.10;;;;;;;15.23;100.00;99271.13;4992614;28;20039;-92
2022/10/27 10:21:50;;;;;;;20.05;3.35;;;;;;;15.25;100.00;99264.59;4998275;28;20037;-92
2022/10/27 10:24:33;;;;;;;18.63;3.17;;;;;;;15.23;100.00;99271.94;4979568;28;20397;-93
2022/10/27 10:27:06;;;;;;;28.10;3.72;;;;;;;15.34;100.00;99269.69;4990926;28;20043;-92
2022/10/27 10:29:47;;;;;;;15.50;2.35;;;;;;;15.38;100.00;99268.28;4965051;28;20168;-93
2022/10/27 10:32:25;;;;;;;23.08;3.45;;;;;;;15.45;100.00;99268.28;4975028;28;20038;-92
2022/10/27 10:34:55;;;;;;;20.77;3.33;;;;;;;15.49;100.00;99274.81;4981699;28;20033;-93
2022/10/27 10:37:45;;;;;;;21.02;4.43;;;;;;;15.55;100.00;99270.50;4994436;28;20130;-92
2022/10/27 10:40:15;;;;;;;19.90;2.80;;;;;;;15.58;100.00;99264.75;4980608;28;20046;-92
2022/10/27 10:42:59;;;;;;;20.35;3.38;;;;;;;15.60;100.00;99268.03;4962602;28;20388;-92
2022/10/27 10:45:32;;;;;;;21.55;3.55;;;;;;;15.61;100.00;99269.66;4966312;28;20038;-93
2022/10/27 10:48:14;;;;;;;19.10;3.70;;;;;;;15.64;100.00;99269.25;5002492;28;20495;-92
2022/10/27 10:50:49;;;;;;;23.30;3.65;;;;;;;15.67;100.00;99260.84;4981496;28;20041;-93
2022/10/27 10:53:37;;;;;;;29.02;4.40;;;;;;;15.78;100.00;99267.41;4965386;28;20876;-92
2022/10/27 10:56:21;;;;;;;20.83;4.20;;;;;;;15.78;100.00;99259.44;4965823;28;20058;-92
2022/10/27 10:59:09;;;;;;;17.00;2.65;;;;;;;15.79;100.00;99273.53;4987405;28;20479;-92
2022/10/27 11:01:52;;;;;;;24.38;3.88;;;;;;;15.70;100.00;99276.41;4979424;28;20052;-93
2022/10/27 11:04:28;;;;;;;23.35;3.22;;;;;;;15.66;100.00;99272.53;4976882;28;20125;-93
2022/10/27 11:07:15;;;;;;;31.93;3.90;;;;;;;15.61;100.00;99278.50;4972121;28;20554;-93
2022/10/27 11:10:04;;;;;;;26.38;3.65;;;;;;;15.62;100.00;99268.66;4957228;28;20133;-92
2022/10/27 11:12:45;;;;;;;23.55;2.55;;;;;;;15.70;100.00;99271.09;4990123;28;20037;-92
2022/10/27 11:15:29;;;;;;;23.30;2.58;;;;;;;15.71;100.00;99259.44;4982391;28;20438;-92
2022/10/27 11:18:04;;;;;;;18.45;3.25;;;;;;;15.78;100.00;99266.59;4962076;28;20095;-92
2022/10/27 11:20:37;;;;;;;23.80;3.05;;;;;;;15.85;100.00;99248.72;4995879;28;20052;-93
2022/10/27 11:23:21;;;;;;;22.63;3.63;;;;;;;15.92;100.00;99252.22;4993071;28;20386;-93
2022/10/27 11:25:52;;;;;;;24.58;3.10;;;;;;;15.93;100.00;99251.19;4976021;28;20120;-92
2022/10/27 11:28:31;;;;;;;17.17;2.88;;;;;;;15.99;100.00;99246.88;4963564;28;21454;-92
2022/10/27 11:31:08;;;;;;;21.58;3.05;;;;;;;16.01;100.00;99252.81;4964293;28;20103;-92
2022/10/27 11:33:53;;;;;;;19.17;2.97;;;;;;;15.94;100.00;99252.81;4993238;28;20398;-92
2022/10/27 11:36:39;;;;;;;19.30;3.42;;;;;;;15.92;100.00;99257.53;4990282;28;20418;-92
2022/10/27 11:39:52;;;;;;;18.65;2.90;;;;;;;15.92;100.00;99256.72;4992183;28;20104;-93
2022/10/27 11:42:38;;;;;;;15.50;2.33;;;;;;;15.94;100.00;99255.47;4963831;28;20077;-91
2022/10/27 11:45:17;;;;;;;25.38;3.53;;;;;;;15.96;100.00;99256.09;4990116;28;20421;-92
2022/10/27 11:47:52;;;;;;;18.83;3.42;;;;;;;16.02;100.00;99254.47;4973777;28;20033;-93